This is the latest recevied weather packets stored in our database for station/object K7TSD. If no packets are shown the sender has not sent any weather packets the latest 10 day(s).
| Time | Temp. | Humidity | Pressure | Rain* | Wind** | Luminosity | Snow |
|---|---|---|---|---|---|---|---|
| 1777431894 | 2.78° C | 79% | 1016.4 hPa | 0 mm | - | 0 W/m² | - |
| 1777431591 | 2.78° C | 78% | 1016.3 hPa | 0 mm | - | 0 W/m² | - |
| 1777431287 | 2.78° C | 79% | 1016.3 hPa | 0 mm | - | 0 W/m² | - |
| 1777430983 | 2.22° C | 81% | 1016.1 hPa | 0 mm | - | 0 W/m² | - |
| 1777430679 | 2.22° C | 81% | 1015.6 hPa | 0 mm | - | 0 W/m² | - |
| 1777430375 | 2.22° C | 81% | 1015.7 hPa | 0 mm | - | 0 W/m² | - |
| 1777430070 | 2.22° C | 82% | 1015.9 hPa | 0 mm | - | 0 W/m² | - |
| 1777429766 | 2.22° C | 81% | 1015.6 hPa | 0 mm | - | 0 W/m² | - |
| 1777429462 | 2.22° C | 81% | 1015.7 hPa | 0 mm | - | 0 W/m² | - |
| 1777429158 | 2.22° C | 81% | 1015.4 hPa | 0 mm | - | 0 W/m² | - |
| 1777428855 | 2.22° C | 81% | 1015.7 hPa | 0 mm | - | 1 W/m² | - |
| 1777428551 | 2.22° C | 81% | 1015.8 hPa | 0 mm | - | 2 W/m² | - |
| 1777428246 | 2.78° C | 81% | 1015.6 hPa | 0 mm | - | 4 W/m² | - |
| 1777427941 | 2.78° C | 81% | 1015.7 hPa | 0 mm | - | 6 W/m² | - |
| 1777427637 | 2.78° C | 80% | 1015.4 hPa | 0 mm | - | 9 W/m² | - |
| 1777427335 | 3.33° C | 79% | 1015.4 hPa | 0 mm | - | 11 W/m² | - |
| 1777427031 | 3.89° C | 77% | 1015.4 hPa | 0 mm | - | 13 W/m² | - |
| 1777426729 | 3.89° C | 76% | 1015.1 hPa | 0 mm | - | 16 W/m² | - |
| 1777426426 | 4.44° C | 76% | 1015.2 hPa | 0 mm | - | 20 W/m² | - |
| 1777426122 | 5° C | 72% | 1015.1 hPa | 0 mm | - | 28 W/m² | - |
| 1777425816 | 5.56° C | 70% | 1014.9 hPa | 0 mm | - | 31 W/m² | - |
| 1777425512 | 6.11° C | 68% | 1014.9 hPa | 0 mm | - | 35 W/m² | - |
| 1777425207 | 6.11° C | 67% | 1015.1 hPa | 0 mm | - | 55 W/m² | - |
| 1777424905 | 6.67° C | 65% | 1015 hPa | 0 mm | - | 40 W/m² | - |
| 1777424600 | 6.67° C | 64% | 1015.1 hPa | 0 mm | - | 38 W/m² | - |
* Rain latest hour (hover to see other rain measurements)
** Current wind speed in m/s (hover to see current wind gust speed)